sensor_id;sensor_type;location;lat;lon;timestamp;pressure;altitude;pressure_sealevel;temperature
24714;BMP280;12820;51.580;5.010;2023-11-19T00:04:38;100909.13;;;14.57
24714;BMP280;12820;51.580;5.010;2023-11-19T00:09:43;100893.91;;;14.59
24714;BMP280;12820;51.580;5.010;2023-11-19T00:14:45;100887.09;;;14.61
24714;BMP280;12820;51.580;5.010;2023-11-19T00:19:48;100880.34;;;14.61
24714;BMP280;12820;51.580;5.010;2023-11-19T00:24:53;100881.13;;;14.63
24714;BMP280;12820;51.580;5.010;2023-11-19T00:29:55;100872.69;;;14.64
24714;BMP280;12820;51.580;5.010;2023-11-19T00:34:57;100866.78;;;14.64
24714;BMP280;12820;51.580;5.010;2023-11-19T00:39:59;100881.88;;;14.67
24714;BMP280;12820;51.580;5.010;2023-11-19T00:45:02;100882.78;;;14.64
24714;BMP280;12820;51.580;5.010;2023-11-19T00:50:05;100885.31;;;14.64
24714;BMP280;12820;51.580;5.010;2023-11-19T00:55:08;100882.78;;;14.64
24714;BMP280;12820;51.580;5.010;2023-11-19T01:00:10;100895.44;;;14.64
24714;BMP280;12820;51.580;5.010;2023-11-19T01:05:21;100876.06;;;14.63
24714;BMP280;12820;51.580;5.010;2023-11-19T01:10:25;100875.25;;;14.63
24714;BMP280;12820;51.580;5.010;2023-11-19T01:15:28;100870.19;;;14.63
24714;BMP280;12820;51.580;5.010;2023-11-19T01:20:30;100825.47;;;14.63
24714;BMP280;12820;51.580;5.010;2023-11-19T01:25:32;100839.00;;;14.62
24714;BMP280;12820;51.580;5.010;2023-11-19T01:30:34;100857.56;;;14.61
24714;BMP280;12820;51.580;5.010;2023-11-19T01:35:36;100875.34;;;14.60
24714;BMP280;12820;51.580;5.010;2023-11-19T01:40:38;100867.78;;;14.58
24714;BMP280;12820;51.580;5.010;2023-11-19T01:45:41;100864.47;;;14.57
24714;BMP280;12820;51.580;5.010;2023-11-19T01:50:43;100865.44;;;14.53
24714;BMP280;12820;51.580;5.010;2023-11-19T01:55:47;100888.28;;;14.50
24714;BMP280;12820;51.580;5.010;2023-11-19T02:00:49;100862.34;;;14.43
24714;BMP280;12820;51.580;5.010;2023-11-19T02:05:51;100850.66;;;14.39
24714;BMP280;12820;51.580;5.010;2023-11-19T02:10:55;100868.50;;;14.35
24714;BMP280;12820;51.580;5.010;2023-11-19T02:16:00;100860.22;;;14.30
24714;BMP280;12820;51.580;5.010;2023-11-19T02:21:04;100853.59;;;14.26
24714;BMP280;12820;51.580;5.010;2023-11-19T02:26:33;100857.88;;;14.23
24714;BMP280;12820;51.580;5.010;2023-11-19T02:31:36;100877.38;;;14.20
24714;BMP280;12820;51.580;5.010;2023-11-19T02:36:39;100879.19;;;14.15
24714;BMP280;12820;51.580;5.010;2023-11-19T02:41:43;100851.53;;;14.10
24714;BMP280;12820;51.580;5.010;2023-11-19T02:46:45;100852.50;;;14.06
24714;BMP280;12820;51.580;5.010;2023-11-19T02:51:50;100854.41;;;13.99
24714;BMP280;12820;51.580;5.010;2023-11-19T02:56:52;100862.97;;;13.93
24714;BMP280;12820;51.580;5.010;2023-11-19T03:01:57;100860.56;;;13.89
24714;BMP280;12820;51.580;5.010;2023-11-19T03:07:01;100864.13;;;13.82
24714;BMP280;12820;51.580;5.010;2023-11-19T03:12:05;100870.13;;;13.77
24714;BMP280;12820;51.580;5.010;2023-11-19T03:17:08;100859.31;;;13.72
24714;BMP280;12820;51.580;5.010;2023-11-19T03:22:12;100860.34;;;13.65
24714;BMP280;12820;51.580;5.010;2023-11-19T03:27:14;100858.81;;;13.60
24714;BMP280;12820;51.580;5.010;2023-11-19T03:32:18;100849.66;;;13.56
24714;BMP280;12820;51.580;5.010;2023-11-19T03:37:21;100844.72;;;13.51
24714;BMP280;12820;51.580;5.010;2023-11-19T03:42:24;100853.22;;;13.48
24714;BMP280;12820;51.580;5.010;2023-11-19T03:47:26;100857.53;;;13.44
24714;BMP280;12820;51.580;5.010;2023-11-19T03:52:28;100844.16;;;13.41
24714;BMP280;12820;51.580;5.010;2023-11-19T03:57:45;100861.03;;;13.39
24714;BMP280;12820;51.580;5.010;2023-11-19T04:02:49;100860.28;;;13.35
24714;BMP280;12820;51.580;5.010;2023-11-19T04:07:51;100869.59;;;13.33
24714;BMP280;12820;51.580;5.010;2023-11-19T04:12:53;100880.59;;;13.31
24714;BMP280;12820;51.580;5.010;2023-11-19T04:17:55;100869.69;;;13.29
24714;BMP280;12820;51.580;5.010;2023-11-19T04:22:57;100867.16;;;13.29
24714;BMP280;12820;51.580;5.010;2023-11-19T04:28:02;100870.63;;;13.27
24714;BMP280;12820;51.580;5.010;2023-11-19T04:33:04;100865.59;;;13.25
24714;BMP280;12820;51.580;5.010;2023-11-19T04:38:07;100869.06;;;13.21
24714;BMP280;12820;51.580;5.010;2023-11-19T04:43:09;100882.53;;;13.20
24714;BMP280;12820;51.580;5.010;2023-11-19T04:48:12;100887.59;;;13.19
24714;BMP280;12820;51.580;5.010;2023-11-19T04:53:14;100871.69;;;13.17
24714;BMP280;12820;51.580;5.010;2023-11-19T04:58:17;100892.75;;;13.16
24714;BMP280;12820;51.580;5.010;2023-11-19T05:03:19;100878.53;;;13.14
24714;BMP280;12820;51.580;5.010;2023-11-19T05:08:22;100881.06;;;13.12
24714;BMP280;12820;51.580;5.010;2023-11-19T05:13:24;100884.44;;;13.11
24714;BMP280;12820;51.580;5.010;2023-11-19T05:18:26;100897.09;;;13.10
24714;BMP280;12820;51.580;5.010;2023-11-19T05:23:28;100879.50;;;13.07
24714;BMP280;12820;51.580;5.010;2023-11-19T05:28:30;100886.28;;;13.05
24714;BMP280;12820;51.580;5.010;2023-11-19T05:33:33;100898.06;;;13.04
24714;BMP280;12820;51.580;5.010;2023-11-19T05:38:35;100898.06;;;13.04
24714;BMP280;12820;51.580;5.010;2023-11-19T05:43:38;100895.59;;;13.03
24714;BMP280;12820;51.580;5.010;2023-11-19T05:48:42;100902.34;;;13.01
24714;BMP280;12820;51.580;5.010;2023-11-19T05:53:45;100903.22;;;13.00
24714;BMP280;12820;51.580;5.010;2023-11-19T05:58:52;100900.78;;;12.97
24714;BMP280;12820;51.580;5.010;2023-11-19T06:03:54;100908.41;;;12.94
24714;BMP280;12820;51.580;5.010;2023-11-19T06:08:56;100899.19;;;12.93
24714;BMP280;12820;51.580;5.010;2023-11-19T06:13:58;100896.72;;;12.90
24714;BMP280;12820;51.580;5.010;2023-11-19T06:19:01;100894.19;;;12.90
24714;BMP280;12820;51.580;5.010;2023-11-19T06:24:03;100886.69;;;12.87
24714;BMP280;12820;51.580;5.010;2023-11-19T06:29:05;100897.66;;;12.86
24714;BMP280;12820;51.580;5.010;2023-11-19T06:34:07;100895.13;;;12.86
24714;BMP280;12820;51.580;5.010;2023-11-19T06:39:10;100896.88;;;12.84
24714;BMP280;12820;51.580;5.010;2023-11-19T06:44:15;100899.41;;;12.83
24714;BMP280;12820;51.580;5.010;2023-11-19T06:49:17;100904.47;;;12.81
24714;BMP280;12820;51.580;5.010;2023-11-19T06:54:20;100922.13;;;12.81
24714;BMP280;12820;51.580;5.010;2023-11-19T06:59:23;100922.22;;;12.79
24714;BMP280;12820;51.580;5.010;2023-11-19T07:04:25;100934.81;;;12.79
24714;BMP280;12820;51.580;5.010;2023-11-19T07:09:27;100951.66;;;12.77
24714;BMP280;12820;51.580;5.010;2023-11-19T07:14:29;100946.63;;;12.77
24714;BMP280;12820;51.580;5.010;2023-11-19T07:19:31;100943.25;;;12.78
24714;BMP280;12820;51.580;5.010;2023-11-19T07:24:33;100946.59;;;12.78
24714;BMP280;12820;51.580;5.010;2023-11-19T07:29:36;100950.78;;;12.80
24714;BMP280;12820;51.580;5.010;2023-11-19T07:34:40;100949.03;;;12.81
24714;BMP280;12820;51.580;5.010;2023-11-19T07:39:42;100958.25;;;12.83
24714;BMP280;12820;51.580;5.010;2023-11-19T07:44:44;100939.75;;;12.84
24714;BMP280;12820;51.580;5.010;2023-11-19T07:49:46;100944.72;;;12.87
24714;BMP280;12820;51.580;5.010;2023-11-19T07:54:48;100947.13;;;12.92
24714;BMP280;12820;51.580;5.010;2023-11-19T07:59:51;100956.34;;;12.94
24714;BMP280;12820;51.580;5.010;2023-11-19T08:04:53;100957.94;;;12.98
24714;BMP280;12820;51.580;5.010;2023-11-19T08:09:57;100956.16;;;13.01
24714;BMP280;12820;51.580;5.010;2023-11-19T08:14:59;100957.72;;;13.07
24714;BMP280;12820;51.580;5.010;2023-11-19T08:20:02;100958.47;;;13.10
24714;BMP280;12820;51.580;5.010;2023-11-19T08:25:05;100949.13;;;13.15
24714;BMP280;12820;51.580;5.010;2023-11-19T08:30:08;100951.53;;;13.19
24714;BMP280;12820;51.580;5.010;2023-11-19T08:35:10;100953.94;;;13.25
24714;BMP280;12820;51.580;5.010;2023-11-19T08:40:12;100956.34;;;13.30
24714;BMP280;12820;51.580;5.010;2023-11-19T08:45:17;100963.75;;;13.37
24714;BMP280;12820;51.580;5.010;2023-11-19T08:50:19;100977.03;;;13.45
24714;BMP280;12820;51.580;5.010;2023-11-19T08:55:22;100971.84;;;13.50
24714;BMP280;12820;51.580;5.010;2023-11-19T09:00:24;100980.88;;;13.60
24714;BMP280;12820;51.580;5.010;2023-11-19T09:05:26;100963.84;;;13.67
24714;BMP280;12820;51.580;5.010;2023-11-19T09:10:28;100963.66;;;13.75
24714;BMP280;12820;51.580;5.010;2023-11-19T09:15:31;100957.63;;;13.81
24714;BMP280;12820;51.580;5.010;2023-11-19T09:20:33;100943.19;;;13.86
24714;BMP280;12820;51.580;5.010;2023-11-19T09:25:40;100943.84;;;13.93
24714;BMP280;12820;51.580;5.010;2023-11-19T09:30:47;100959.31;;;14.13
24714;BMP280;12820;51.580;5.010;2023-11-19T09:35:49;100958.97;;;14.24
24714;BMP280;12820;51.580;5.010;2023-11-19T09:40:51;100946.00;;;14.36
24714;BMP280;12820;51.580;5.010;2023-11-19T09:45:54;100958.97;;;14.54
24714;BMP280;12820;51.580;5.010;2023-11-19T09:50:56;100944.06;;;14.74
24714;BMP280;12820;51.580;5.010;2023-11-19T09:56:01;100954.94;;;15.05
24714;BMP280;12820;51.580;5.010;2023-11-19T10:01:05;100946.78;;;15.23
24714;BMP280;12820;51.580;5.010;2023-11-19T10:06:15;100944.22;;;15.49
24714;BMP280;12820;51.580;5.010;2023-11-19T10:11:17;100950.50;;;15.64
24714;BMP280;12820;51.580;5.010;2023-11-19T10:16:19;100945.44;;;15.64
24714;BMP280;12820;51.580;5.010;2023-11-19T10:21:21;100941.19;;;15.64
24714;BMP280;12820;51.580;5.010;2023-11-19T10:26:24;100936.06;;;15.65
24714;BMP280;12820;51.580;5.010;2023-11-19T10:31:26;100931.94;;;15.63
24714;BMP280;12820;51.580;5.010;2023-11-19T10:36:39;100935.16;;;15.68
24714;BMP280;12820;51.580;5.010;2023-11-19T10:41:44;100942.28;;;15.81
24714;BMP280;12820;51.580;5.010;2023-11-19T10:46:48;100942.97;;;15.86
24714;BMP280;12820;51.580;5.010;2023-11-19T10:51:51;100930.50;;;16.05
24714;BMP280;12820;51.580;5.010;2023-11-19T10:56:55;100921.19;;;16.06
24714;BMP280;12820;51.580;5.010;2023-11-19T11:02:03;100934.94;;;15.99
24714;BMP280;12820;51.580;5.010;2023-11-19T11:07:08;100939.16;;;15.99
24714;BMP280;12820;51.580;5.010;2023-11-19T11:12:12;100943.94;;;16.07
24714;BMP280;12820;51.580;5.010;2023-11-19T11:17:17;100924.06;;;16.19
24714;BMP280;12820;51.580;5.010;2023-11-19T11:22:21;100914.25;;;16.33
24714;BMP280;12820;51.580;5.010;2023-11-19T11:37:46;100895.66;;;18.36
24714;BMP280;12820;51.580;5.010;2023-11-19T11:42:50;100886.28;;;18.00
24714;BMP280;12820;51.580;5.010;2023-11-19T11:57:58;100871.19;;;18.15
24714;BMP280;12820;51.580;5.010;2023-11-19T12:03:02;100887.75;;;17.86
24714;BMP280;12820;51.580;5.010;2023-11-19T12:08:05;100883.41;;;17.69
24714;BMP280;12820;51.580;5.010;2023-11-19T12:13:09;100860.88;;;17.79
24714;BMP280;12820;51.580;5.010;2023-11-19T12:18:11;100844.06;;;17.97
24714;BMP280;12820;51.580;5.010;2023-11-19T12:23:14;100863.00;;;18.09
24714;BMP280;12820;51.580;5.010;2023-11-19T12:28:17;100860.03;;;18.00
24714;BMP280;12820;51.580;5.010;2023-11-19T12:33:19;100870.84;;;17.85
24714;BMP280;12820;51.580;5.010;2023-11-19T12:38:23;100865.72;;;17.66
24714;BMP280;12820;51.580;5.010;2023-11-19T12:43:25;100860.09;;;17.40
24714;BMP280;12820;51.580;5.010;2023-11-19T12:48:27;100866.94;;;17.17
24714;BMP280;12820;51.580;5.010;2023-11-19T12:53:47;100864.66;;;16.90
24714;BMP280;12820;51.580;5.010;2023-11-19T12:58:50;100882.38;;;16.70
24714;BMP280;12820;51.580;5.010;2023-11-19T13:03:52;100878.63;;;16.58
24714;BMP280;12820;51.580;5.010;2023-11-19T13:08:55;100867.16;;;16.70
24714;BMP280;12820;51.580;5.010;2023-11-19T13:13:59;100867.09;;;18.49
24714;BMP280;12820;51.580;5.010;2023-11-19T13:19:01;100840.13;;;20.59
24714;BMP280;12820;51.580;5.010;2023-11-19T13:24:05;100837.16;;;21.11
24714;BMP280;12820;51.580;5.010;2023-11-19T13:29:08;100833.13;;;20.32
24714;BMP280;12820;51.580;5.010;2023-11-19T13:34:12;100839.38;;;19.63
24714;BMP280;12820;51.580;5.010;2023-11-19T13:39:14;100844.97;;;19.20
24714;BMP280;12820;51.580;5.010;2023-11-19T13:44:24;100827.88;;;18.53
24714;BMP280;12820;51.580;5.010;2023-11-19T13:49:26;100844.75;;;18.00
24714;BMP280;12820;51.580;5.010;2023-11-19T13:54:30;100840.75;;;17.56
24714;BMP280;12820;51.580;5.010;2023-11-19T13:59:33;100828.75;;;17.20
24714;BMP280;12820;51.580;5.010;2023-11-19T14:04:35;100820.59;;;16.93
24714;BMP280;12820;51.580;5.010;2023-11-19T14:09:37;100820.56;;;16.72
24714;BMP280;12820;51.580;5.010;2023-11-19T14:14:39;100824.50;;;16.58
24714;BMP280;12820;51.580;5.010;2023-11-19T14:19:42;100825.97;;;16.42
24714;BMP280;12820;51.580;5.010;2023-11-19T14:24:44;100821.28;;;16.32
24714;BMP280;12820;51.580;5.010;2023-11-19T14:29:47;100828.19;;;16.29
24714;BMP280;12820;51.580;5.010;2023-11-19T14:34:49;100824.09;;;16.25
24714;BMP280;12820;51.580;5.010;2023-11-19T14:39:51;100828.19;;;16.29
24714;BMP280;12820;51.580;5.010;2023-11-19T14:44:53;100816.38;;;16.28
24714;BMP280;12820;51.580;5.010;2023-11-19T14:49:56;100828.06;;;16.32
24714;BMP280;12820;51.580;5.010;2023-11-19T14:54:58;100821.34;;;16.31
24714;BMP280;12820;51.580;5.010;2023-11-19T15:00:00;100831.84;;;16.22
24714;BMP280;12820;51.580;5.010;2023-11-19T15:05:03;100811.38;;;16.04
24714;BMP280;12820;51.580;5.010;2023-11-19T15:10:06;100802.56;;;15.90
24714;BMP280;12820;51.580;5.010;2023-11-19T15:15:12;100798.00;;;15.77
24714;BMP280;12820;51.580;5.010;2023-11-19T15:20:36;100811.19;;;15.62
24714;BMP280;12820;51.580;5.010;2023-11-19T15:25:38;100796.47;;;15.49
24714;BMP280;12820;51.580;5.010;2023-11-19T15:30:41;100794.31;;;15.39
24714;BMP280;12820;51.580;5.010;2023-11-19T15:35:43;100808.19;;;15.28
24714;BMP280;12820;51.580;5.010;2023-11-19T15:40:45;100797.53;;;15.18
24714;BMP280;12820;51.580;5.010;2023-11-19T15:45:47;100791.03;;;15.11
24714;BMP280;12820;51.580;5.010;2023-11-19T15:50:49;100784.50;;;15.05
24714;BMP280;12820;51.580;5.010;2023-11-19T15:55:52;100799.94;;;14.97
24714;BMP280;12820;51.580;5.010;2023-11-19T16:00:56;100808.56;;;14.91
24714;BMP280;12820;51.580;5.010;2023-11-19T16:05:59;100814.72;;;14.84
24714;BMP280;12820;51.580;5.010;2023-11-19T16:11:10;100811.53;;;14.77
24714;BMP280;12820;51.580;5.010;2023-11-19T16:16:15;100812.59;;;14.71
24714;BMP280;12820;51.580;5.010;2023-11-19T16:21:17;100812.84;;;14.63
24714;BMP280;12820;51.580;5.010;2023-11-19T16:26:19;100810.44;;;14.59
24714;BMP280;12820;51.580;5.010;2023-11-19T16:31:22;100803.00;;;14.55
24714;BMP280;12820;51.580;5.010;2023-11-19T16:36:24;100796.41;;;14.49
24714;BMP280;12820;51.580;5.010;2023-11-19T16:41:27;100796.56;;;14.45
24714;BMP280;12820;51.580;5.010;2023-11-19T16:46:43;100797.53;;;14.41
24714;BMP280;12820;51.580;5.010;2023-11-19T16:51:45;100795.19;;;14.35
24714;BMP280;12820;51.580;5.010;2023-11-19T16:57:15;100800.41;;;14.29
24714;BMP280;12820;51.580;5.010;2023-11-19T17:02:19;100802.19;;;14.26
24714;BMP280;12820;51.580;5.010;2023-11-19T17:07:21;100796.41;;;14.22
24714;BMP280;12820;51.580;5.010;2023-11-19T17:12:23;100805.75;;;14.19
24714;BMP280;12820;51.580;5.010;2023-11-19T17:17:27;100817.69;;;14.16
24714;BMP280;12820;51.580;5.010;2023-11-19T17:22:37;100802.59;;;14.13
24714;BMP280;12820;51.580;5.010;2023-11-19T17:27:40;100801.81;;;14.11
24714;BMP280;12820;51.580;5.010;2023-11-19T17:32:43;100793.44;;;14.09
24714;BMP280;12820;51.580;5.010;2023-11-19T17:37:45;100791.00;;;14.06
24714;BMP280;12820;51.580;5.010;2023-11-19T17:42:47;100798.69;;;14.03
24714;BMP280;12820;51.580;5.010;2023-11-19T17:47:57;100792.00;;;14.01
24714;BMP280;12820;51.580;5.010;2023-11-19T17:52:59;100790.41;;;13.98
24714;BMP280;12820;51.580;5.010;2023-11-19T17:58:01;100798.13;;;13.94
24714;BMP280;12820;51.580;5.010;2023-11-19T18:03:04;100793.97;;;13.91
24714;BMP280;12820;51.580;5.010;2023-11-19T18:08:07;100788.16;;;13.89
24714;BMP280;12820;51.580;5.010;2023-11-19T18:13:11;100795.78;;;13.86
24714;BMP280;12820;51.580;5.010;2023-11-19T18:18:13;100795.88;;;13.84
24714;BMP280;12820;51.580;5.010;2023-11-19T18:23:16;100795.91;;;13.82
24714;BMP280;12820;51.580;5.010;2023-11-19T18:28:18;100792.56;;;13.82
24714;BMP280;12820;51.580;5.010;2023-11-19T18:33:21;100790.88;;;13.81
24714;BMP280;12820;51.580;5.010;2023-11-19T18:38:23;100799.34;;;13.80
24714;BMP280;12820;51.580;5.010;2023-11-19T18:43:44;100797.59;;;13.80
24714;BMP280;12820;51.580;5.010;2023-11-19T18:48:46;100790.97;;;13.78
24714;BMP280;12820;51.580;5.010;2023-11-19T18:53:48;100792.69;;;13.76
24714;BMP280;12820;51.580;5.010;2023-11-19T18:58:50;100791.88;;;13.75
24714;BMP280;12820;51.580;5.010;2023-11-19T19:03:52;100783.41;;;13.76
24714;BMP280;12820;51.580;5.010;2023-11-19T19:08:55;100790.97;;;13.78
24714;BMP280;12820;51.580;5.010;2023-11-19T19:14:01;100784.25;;;13.77
24714;BMP280;12820;51.580;5.010;2023-11-19T19:19:05;100788.44;;;13.78
24714;BMP280;12820;51.580;5.010;2023-11-19T19:24:08;100788.41;;;13.79
24714;BMP280;12820;51.580;5.010;2023-11-19T19:29:11;100791.75;;;13.80
24714;BMP280;12820;51.580;5.010;2023-11-19T19:34:14;100784.97;;;13.82
24714;BMP280;12820;51.580;5.010;2023-11-19T19:39:16;100789.16;;;13.83
24714;BMP280;12820;51.580;5.010;2023-11-19T19:44:18;100775.66;;;13.84
24714;BMP280;12820;51.580;5.010;2023-11-19T19:49:22;100779.78;;;13.86
24714;BMP280;12820;51.580;5.010;2023-11-19T19:54:24;100779.72;;;13.89
24714;BMP280;12820;51.580;5.010;2023-11-19T19:59:26;100787.25;;;13.90
24714;BMP280;12820;51.580;5.010;2023-11-19T20:04:28;100788.91;;;13.91
24714;BMP280;12820;51.580;5.010;2023-11-19T20:09:32;100799.81;;;13.93
24714;BMP280;12820;51.580;5.010;2023-11-19T20:14:36;100796.41;;;13.94
24714;BMP280;12820;51.580;5.010;2023-11-19T20:19:40;100796.34;;;13.96
24714;BMP280;12820;51.580;5.010;2023-11-19T20:24:42;100808.13;;;13.97
24714;BMP280;12820;51.580;5.010;2023-11-19T20:29:45;100807.19;;;13.99
24714;BMP280;12820;51.580;5.010;2023-11-19T20:34:48;100811.34;;;14.02
24714;BMP280;12820;51.580;5.010;2023-11-19T20:39:50;100795.31;;;14.03
24714;BMP280;12820;51.580;5.010;2023-11-19T20:44:52;100810.34;;;14.07
24714;BMP280;12820;51.580;5.010;2023-11-19T20:49:55;100810.34;;;14.07
24714;BMP280;12820;51.580;5.010;2023-11-19T20:54:57;100811.22;;;14.06
24714;BMP280;12820;51.580;5.010;2023-11-19T21:00:00;100823.03;;;14.05
24714;BMP280;12820;51.580;5.010;2023-11-19T21:05:02;100821.31;;;14.06
24714;BMP280;12820;51.580;5.010;2023-11-19T21:10:04;100824.69;;;14.06
24714;BMP280;12820;51.580;5.010;2023-11-19T21:15:07;100827.22;;;14.06
24714;BMP280;12820;51.580;5.010;2023-11-19T21:20:10;100829.78;;;14.05
24714;BMP280;12820;51.580;5.010;2023-11-19T21:25:12;100815.44;;;14.05
24714;BMP280;12820;51.580;5.010;2023-11-19T21:30:14;100818.81;;;14.06
24714;BMP280;12820;51.580;5.010;2023-11-19T21:35:16;100812.09;;;14.05
24714;BMP280;12820;51.580;5.010;2023-11-19T21:40:19;100813.00;;;14.03
24714;BMP280;12820;51.580;5.010;2023-11-19T21:45:21;100813.88;;;14.02
24714;BMP280;12820;51.580;5.010;2023-11-19T21:50:23;100817.25;;;14.02
24714;BMP280;12820;51.580;5.010;2023-11-19T21:55:25;100825.69;;;14.01
24714;BMP280;12820;51.580;5.010;2023-11-19T22:00:27;100820.63;;;14.01
24714;BMP280;12820;51.580;5.010;2023-11-19T22:05:30;100826.50;;;14.02
24714;BMP280;12820;51.580;5.010;2023-11-19T22:10:32;100831.53;;;14.03
24714;BMP280;12820;51.580;5.010;2023-11-19T22:15:34;100839.13;;;14.03
24714;BMP280;12820;51.580;5.010;2023-11-19T22:20:36;100850.09;;;14.02
24714;BMP280;12820;51.580;5.010;2023-11-19T22:25:39;100835.66;;;14.05
24714;BMP280;12820;51.580;5.010;2023-11-19T22:30:42;100840.69;;;14.07
24714;BMP280;12820;51.580;5.010;2023-11-19T22:35:44;100864.25;;;14.07
24714;BMP280;12820;51.580;5.010;2023-11-19T22:40:47;100854.19;;;14.06
24714;BMP280;12820;51.580;5.010;2023-11-19T22:45:49;100849.22;;;14.03
24714;BMP280;12820;51.580;5.010;2023-11-19T22:50:52;100865.22;;;14.04
24714;BMP280;12820;51.580;5.010;2023-11-19T22:55:54;100851.78;;;14.02
24714;BMP280;12820;51.580;5.010;2023-11-19T23:00:56;100866.13;;;14.01
24714;BMP280;12820;51.580;5.010;2023-11-19T23:05:59;100862.78;;;13.99
24714;BMP280;12820;51.580;5.010;2023-11-19T23:11:02;100866.97;;;14.00
24714;BMP280;12820;51.580;5.010;2023-11-19T23:16:04;100863.63;;;14.00
24714;BMP280;12820;51.580;5.010;2023-11-19T23:21:07;100862.00;;;13.99
24714;BMP280;12820;51.580;5.010;2023-11-19T23:26:09;100875.47;;;13.98
24714;BMP280;12820;51.580;5.010;2023-11-19T23:31:14;100878.00;;;13.98
24714;BMP280;12820;51.580;5.010;2023-11-19T23:36:17;100880.53;;;13.98
24714;BMP280;12820;51.580;5.010;2023-11-19T23:41:19;100879.72;;;13.97
24714;BMP280;12820;51.580;5.010;2023-11-19T23:46:47;100879.72;;;13.97
24714;BMP280;12820;51.580;5.010;2023-11-19T23:51:49;100878.91;;;13.95
24714;BMP280;12820;51.580;5.010;2023-11-19T23:56:52;100888.16;;;13.96
